sensor_id;sensor_type;location;lat;lon;timestamp;temperature;humidity
14687;DHT22;7431;49.440;11.084;2023-06-19T00:01:44;21.00;91.10
14687;DHT22;7431;49.440;11.084;2023-06-19T00:04:10;20.90;90.90
14687;DHT22;7431;49.440;11.084;2023-06-19T00:06:36;20.90;91.10
14687;DHT22;7431;49.440;11.084;2023-06-19T00:09:02;20.80;91.40
14687;DHT22;7431;49.440;11.084;2023-06-19T00:11:28;20.80;91.20
14687;DHT22;7431;49.440;11.084;2023-06-19T00:13:54;20.80;91.20
14687;DHT22;7431;49.440;11.084;2023-06-19T00:16:20;20.80;91.50
14687;DHT22;7431;49.440;11.084;2023-06-19T00:18:46;20.80;91.60
14687;DHT22;7431;49.440;11.084;2023-06-19T00:21:12;20.90;91.20
14687;DHT22;7431;49.440;11.084;2023-06-19T00:23:37;20.90;91.70
14687;DHT22;7431;49.440;11.084;2023-06-19T00:26:04;20.90;91.20
14687;DHT22;7431;49.440;11.084;2023-06-19T00:28:31;20.90;91.00
14687;DHT22;7431;49.440;11.084;2023-06-19T00:30:56;20.90;90.90
14687;DHT22;7431;49.440;11.084;2023-06-19T00:33:22;20.90;90.90
14687;DHT22;7431;49.440;11.084;2023-06-19T00:35:50;20.90;90.50
14687;DHT22;7431;49.440;11.084;2023-06-19T00:38:16;20.90;90.50
14687;DHT22;7431;49.440;11.084;2023-06-19T00:40:41;20.90;90.70
14687;DHT22;7431;49.440;11.084;2023-06-19T00:43:07;20.90;90.70
14687;DHT22;7431;49.440;11.084;2023-06-19T00:45:33;20.80;91.10
14687;DHT22;7431;49.440;11.084;2023-06-19T00:47:59;20.80;90.70
14687;DHT22;7431;49.440;11.084;2023-06-19T00:50:27;20.80;90.70
14687;DHT22;7431;49.440;11.084;2023-06-19T00:52:53;20.80;90.80
14687;DHT22;7431;49.440;11.084;2023-06-19T00:55:19;20.70;90.90
14687;DHT22;7431;49.440;11.084;2023-06-19T00:57:45;20.70;91.00
14687;DHT22;7431;49.440;11.084;2023-06-19T01:00:11;20.80;91.10
14687;DHT22;7431;49.440;11.084;2023-06-19T01:02:38;20.80;91.20
14687;DHT22;7431;49.440;11.084;2023-06-19T01:05:04;20.80;91.30
14687;DHT22;7431;49.440;11.084;2023-06-19T01:07:44;20.80;91.30
14687;DHT22;7431;49.440;11.084;2023-06-19T01:10:15;20.80;91.50
14687;DHT22;7431;49.440;11.084;2023-06-19T01:13:21;20.70;91.60
14687;DHT22;7431;49.440;11.084;2023-06-19T01:15:50;20.70;91.80
14687;DHT22;7431;49.440;11.084;2023-06-19T01:18:16;20.70;91.90
14687;DHT22;7431;49.440;11.084;2023-06-19T01:20:43;20.70;91.90
14687;DHT22;7431;49.440;11.084;2023-06-19T01:23:10;20.60;92.20
14687;DHT22;7431;49.440;11.084;2023-06-19T01:25:35;20.60;92.30
14687;DHT22;7431;49.440;11.084;2023-06-19T01:28:03;20.50;92.50
14687;DHT22;7431;49.440;11.084;2023-06-19T01:30:31;20.40;92.60
14687;DHT22;7431;49.440;11.084;2023-06-19T01:33:03;20.30;92.90
14687;DHT22;7431;49.440;11.084;2023-06-19T01:35:35;20.30;93.10
14687;DHT22;7431;49.440;11.084;2023-06-19T01:38:02;20.30;93.20
14687;DHT22;7431;49.440;11.084;2023-06-19T01:40:29;20.40;93.40
14687;DHT22;7431;49.440;11.084;2023-06-19T01:42:58;20.40;93.50
14687;DHT22;7431;49.440;11.084;2023-06-19T01:45:27;20.30;93.70
14687;DHT22;7431;49.440;11.084;2023-06-19T01:47:53;20.30;93.90
14687;DHT22;7431;49.440;11.084;2023-06-19T01:50:23;20.30;93.90
14687;DHT22;7431;49.440;11.084;2023-06-19T01:52:49;20.30;94.00
14687;DHT22;7431;49.440;11.084;2023-06-19T01:55:15;20.20;94.00
14687;DHT22;7431;49.440;11.084;2023-06-19T01:57:40;20.20;94.00
14687;DHT22;7431;49.440;11.084;2023-06-19T02:00:07;20.20;93.90
14687;DHT22;7431;49.440;11.084;2023-06-19T02:02:33;20.00;94.10
14687;DHT22;7431;49.440;11.084;2023-06-19T02:04:59;19.90;94.20
14687;DHT22;7431;49.440;11.084;2023-06-19T02:07:25;19.90;94.30
14687;DHT22;7431;49.440;11.084;2023-06-19T02:09:50;19.90;94.30
14687;DHT22;7431;49.440;11.084;2023-06-19T02:12:16;19.80;94.30
14687;DHT22;7431;49.440;11.084;2023-06-19T02:14:41;19.90;94.20
14687;DHT22;7431;49.440;11.084;2023-06-19T02:17:07;19.80;94.30
14687;DHT22;7431;49.440;11.084;2023-06-19T02:19:33;19.70;94.30
14687;DHT22;7431;49.440;11.084;2023-06-19T02:21:58;19.70;94.50
14687;DHT22;7431;49.440;11.084;2023-06-19T02:24:24;19.50;94.90
14687;DHT22;7431;49.440;11.084;2023-06-19T02:26:50;19.50;95.20
14687;DHT22;7431;49.440;11.084;2023-06-19T02:29:16;19.40;95.30
14687;DHT22;7431;49.440;11.084;2023-06-19T02:31:41;19.30;95.70
14687;DHT22;7431;49.440;11.084;2023-06-19T02:34:08;19.20;96.00
14687;DHT22;7431;49.440;11.084;2023-06-19T02:36:34;19.20;96.30
14687;DHT22;7431;49.440;11.084;2023-06-19T02:39:01;19.10;96.60
14687;DHT22;7431;49.440;11.084;2023-06-19T02:41:27;19.10;96.90
14687;DHT22;7431;49.440;11.084;2023-06-19T02:43:52;19.10;97.10
14687;DHT22;7431;49.440;11.084;2023-06-19T02:46:18;19.10;97.10
14687;DHT22;7431;49.440;11.084;2023-06-19T02:48:43;19.20;97.10
14687;DHT22;7431;49.440;11.084;2023-06-19T02:51:09;19.30;97.20
14687;DHT22;7431;49.440;11.084;2023-06-19T02:53:35;19.40;97.00
14687;DHT22;7431;49.440;11.084;2023-06-19T02:56:00;19.50;96.90
14687;DHT22;7431;49.440;11.084;2023-06-19T02:58:26;19.60;96.90
14687;DHT22;7431;49.440;11.084;2023-06-19T03:00:54;19.70;96.80
14687;DHT22;7431;49.440;11.084;2023-06-19T03:03:20;19.80;96.90
14687;DHT22;7431;49.440;11.084;2023-06-19T03:05:45;19.90;97.00
14687;DHT22;7431;49.440;11.084;2023-06-19T03:08:11;19.90;97.20
14687;DHT22;7431;49.440;11.084;2023-06-19T03:10:37;20.00;97.20
14687;DHT22;7431;49.440;11.084;2023-06-19T03:13:02;20.00;97.20
14687;DHT22;7431;49.440;11.084;2023-06-19T03:15:28;20.10;97.30
14687;DHT22;7431;49.440;11.084;2023-06-19T03:17:54;20.10;97.40
14687;DHT22;7431;49.440;11.084;2023-06-19T03:20:19;20.10;97.50
14687;DHT22;7431;49.440;11.084;2023-06-19T03:22:46;20.20;97.50
14687;DHT22;7431;49.440;11.084;2023-06-19T03:25:12;20.20;97.50
14687;DHT22;7431;49.440;11.084;2023-06-19T03:27:37;20.20;96.90
14687;DHT22;7431;49.440;11.084;2023-06-19T03:30:04;20.20;97.00
14687;DHT22;7431;49.440;11.084;2023-06-19T03:32:33;20.30;97.10
14687;DHT22;7431;49.440;11.084;2023-06-19T03:35:01;20.40;96.80
14687;DHT22;7431;49.440;11.084;2023-06-19T03:37:27;20.50;96.60
14687;DHT22;7431;49.440;11.084;2023-06-19T03:39:53;20.50;96.60
14687;DHT22;7431;49.440;11.084;2023-06-19T03:42:18;20.50;96.60
14687;DHT22;7431;49.440;11.084;2023-06-19T03:44:44;20.50;96.50
14687;DHT22;7431;49.440;11.084;2023-06-19T03:47:09;20.50;96.60
14687;DHT22;7431;49.440;11.084;2023-06-19T03:49:35;20.50;96.80
14687;DHT22;7431;49.440;11.084;2023-06-19T03:52:01;20.50;96.90
14687;DHT22;7431;49.440;11.084;2023-06-19T03:54:27;20.50;97.10
14687;DHT22;7431;49.440;11.084;2023-06-19T03:56:52;20.50;97.20
14687;DHT22;7431;49.440;11.084;2023-06-19T03:59:18;20.50;97.40
14687;DHT22;7431;49.440;11.084;2023-06-19T04:01:44;20.60;97.50
14687;DHT22;7431;49.440;11.084;2023-06-19T04:04:09;20.60;97.50
14687;DHT22;7431;49.440;11.084;2023-06-19T04:06:35;20.70;97.80
14687;DHT22;7431;49.440;11.084;2023-06-19T04:09:01;20.80;97.90
14687;DHT22;7431;49.440;11.084;2023-06-19T04:11:26;20.80;98.00
14687;DHT22;7431;49.440;11.084;2023-06-19T04:13:52;20.80;98.20
14687;DHT22;7431;49.440;11.084;2023-06-19T04:16:18;20.80;98.30
14687;DHT22;7431;49.440;11.084;2023-06-19T04:18:43;20.80;98.40
14687;DHT22;7431;49.440;11.084;2023-06-19T04:21:09;20.80;98.60
14687;DHT22;7431;49.440;11.084;2023-06-19T04:23:34;20.90;98.70
14687;DHT22;7431;49.440;11.084;2023-06-19T04:26:00;21.00;99.00
14687;DHT22;7431;49.440;11.084;2023-06-19T04:28:26;21.00;99.00
14687;DHT22;7431;49.440;11.084;2023-06-19T04:30:51;21.20;99.00
14687;DHT22;7431;49.440;11.084;2023-06-19T04:33:28;21.50;99.00
14687;DHT22;7431;49.440;11.084;2023-06-19T04:35:55;21.80;99.00
14687;DHT22;7431;49.440;11.084;2023-06-19T04:38:20;21.80;99.10
14687;DHT22;7431;49.440;11.084;2023-06-19T04:40:52;21.80;99.30
14687;DHT22;7431;49.440;11.084;2023-06-19T04:43:18;21.90;99.50
14687;DHT22;7431;49.440;11.084;2023-06-19T04:45:44;22.30;99.50
14687;DHT22;7431;49.440;11.084;2023-06-19T04:48:10;22.70;99.30
14687;DHT22;7431;49.440;11.084;2023-06-19T04:50:36;22.80;99.00
14687;DHT22;7431;49.440;11.084;2023-06-19T04:53:02;22.80;99.10
14687;DHT22;7431;49.440;11.084;2023-06-19T04:55:28;22.70;99.20
14687;DHT22;7431;49.440;11.084;2023-06-19T04:57:53;22.60;99.30
14687;DHT22;7431;49.440;11.084;2023-06-19T05:00:20;22.50;99.40
14687;DHT22;7431;49.440;11.084;2023-06-19T05:02:49;22.50;99.50
14687;DHT22;7431;49.440;11.084;2023-06-19T05:05:15;22.60;99.50
14687;DHT22;7431;49.440;11.084;2023-06-19T05:07:41;23.00;99.60
14687;DHT22;7431;49.440;11.084;2023-06-19T05:10:08;23.50;99.30
14687;DHT22;7431;49.440;11.084;2023-06-19T05:12:37;23.90;99.00
14687;DHT22;7431;49.440;11.084;2023-06-19T05:15:03;24.60;98.60
14687;DHT22;7431;49.440;11.084;2023-06-19T05:17:28;25.20;97.60
14687;DHT22;7431;49.440;11.084;2023-06-19T05:19:54;25.40;97.60
14687;DHT22;7431;49.440;11.084;2023-06-19T05:22:20;24.90;97.70
14687;DHT22;7431;49.440;11.084;2023-06-19T05:24:47;24.60;98.10
14687;DHT22;7431;49.440;11.084;2023-06-19T05:27:13;24.70;98.40
14687;DHT22;7431;49.440;11.084;2023-06-19T05:29:38;25.00;98.20
14687;DHT22;7431;49.440;11.084;2023-06-19T05:32:04;25.30;97.40
14687;DHT22;7431;49.440;11.084;2023-06-19T05:34:30;25.60;97.20
14687;DHT22;7431;49.440;11.084;2023-06-19T05:36:57;26.10;96.70
14687;DHT22;7431;49.440;11.084;2023-06-19T20:23:46;23.70;99.90
14687;DHT22;7431;49.440;11.084;2023-06-19T20:26:15;24.10;99.90
14687;DHT22;7431;49.440;11.084;2023-06-19T20:28:41;23.80;99.90
14687;DHT22;7431;49.440;11.084;2023-06-19T20:31:07;23.80;99.90
14687;DHT22;7431;49.440;11.084;2023-06-19T20:33:32;23.60;99.90
14687;DHT22;7431;49.440;11.084;2023-06-19T20:35:58;23.20;99.90
14687;DHT22;7431;49.440;11.084;2023-06-19T20:38:27;23.00;99.90
14687;DHT22;7431;49.440;11.084;2023-06-19T20:40:52;23.20;99.90
14687;DHT22;7431;49.440;11.084;2023-06-19T20:43:20;23.20;99.90
14687;DHT22;7431;49.440;11.084;2023-06-19T20:45:45;23.40;99.90
14687;DHT22;7431;49.440;11.084;2023-06-19T20:48:11;23.20;99.90
14687;DHT22;7431;49.440;11.084;2023-06-19T20:50:37;23.10;99.90
14687;DHT22;7431;49.440;11.084;2023-06-19T20:53:03;23.20;99.90
14687;DHT22;7431;49.440;11.084;2023-06-19T20:55:31;23.20;99.90
14687;DHT22;7431;49.440;11.084;2023-06-19T20:57:56;23.00;99.90
14687;DHT22;7431;49.440;11.084;2023-06-19T21:00:22;22.80;99.90
14687;DHT22;7431;49.440;11.084;2023-06-19T21:02:48;22.90;99.90
14687;DHT22;7431;49.440;11.084;2023-06-19T21:05:15;23.20;99.90
14687;DHT22;7431;49.440;11.084;2023-06-19T21:07:45;23.10;99.90
14687;DHT22;7431;49.440;11.084;2023-06-19T21:10:11;23.10;99.90
14687;DHT22;7431;49.440;11.084;2023-06-19T21:12:37;23.10;99.90
14687;DHT22;7431;49.440;11.084;2023-06-19T21:15:03;22.90;99.90
14687;DHT22;7431;49.440;11.084;2023-06-19T21:17:28;22.90;99.90
14687;DHT22;7431;49.440;11.084;2023-06-19T21:19:54;23.00;99.90
14687;DHT22;7431;49.440;11.084;2023-06-19T21:22:20;23.20;99.90
14687;DHT22;7431;49.440;11.084;2023-06-19T21:24:45;23.20;99.90
14687;DHT22;7431;49.440;11.084;2023-06-19T21:27:11;23.20;99.90
14687;DHT22;7431;49.440;11.084;2023-06-19T21:29:36;23.20;99.90
14687;DHT22;7431;49.440;11.084;2023-06-19T21:32:04;23.20;99.90
14687;DHT22;7431;49.440;11.084;2023-06-19T21:34:30;23.10;99.90
14687;DHT22;7431;49.440;11.084;2023-06-19T21:36:56;23.10;99.90
14687;DHT22;7431;49.440;11.084;2023-06-19T21:39:22;23.00;99.90
14687;DHT22;7431;49.440;11.084;2023-06-19T21:41:47;22.90;99.90
14687;DHT22;7431;49.440;11.084;2023-06-19T21:44:13;22.70;99.90
14687;DHT22;7431;49.440;11.084;2023-06-19T21:46:39;22.70;99.90
14687;DHT22;7431;49.440;11.084;2023-06-19T21:49:04;22.80;99.90
14687;DHT22;7431;49.440;11.084;2023-06-19T21:51:33;22.60;99.90
14687;DHT22;7431;49.440;11.084;2023-06-19T21:54:00;22.50;99.90
14687;DHT22;7431;49.440;11.084;2023-06-19T21:56:26;22.20;99.90
14687;DHT22;7431;49.440;11.084;2023-06-19T21:58:52;22.90;99.90
14687;DHT22;7431;49.440;11.084;2023-06-19T22:01:18;22.40;99.90
14687;DHT22;7431;49.440;11.084;2023-06-19T22:03:43;22.00;99.90
14687;DHT22;7431;49.440;11.084;2023-06-19T22:06:09;21.90;99.90
14687;DHT22;7431;49.440;11.084;2023-06-19T22:08:34;22.00;99.90
14687;DHT22;7431;49.440;11.084;2023-06-19T22:11:00;21.70;99.90
14687;DHT22;7431;49.440;11.084;2023-06-19T22:13:26;21.80;99.90
14687;DHT22;7431;49.440;11.084;2023-06-19T22:15:57;21.70;99.90
14687;DHT22;7431;49.440;11.084;2023-06-19T22:18:22;21.50;99.90
14687;DHT22;7431;49.440;11.084;2023-06-19T22:20:48;21.40;99.90
14687;DHT22;7431;49.440;11.084;2023-06-19T22:23:14;21.60;99.90
14687;DHT22;7431;49.440;11.084;2023-06-19T22:25:39;21.40;99.90
14687;DHT22;7431;49.440;11.084;2023-06-19T22:28:05;21.40;99.90
14687;DHT22;7431;49.440;11.084;2023-06-19T22:30:31;21.20;99.90
14687;DHT22;7431;49.440;11.084;2023-06-19T22:32:56;21.30;99.90
14687;DHT22;7431;49.440;11.084;2023-06-19T22:35:22;21.60;99.90
14687;DHT22;7431;49.440;11.084;2023-06-19T22:37:48;21.60;99.90
14687;DHT22;7431;49.440;11.084;2023-06-19T22:40:13;21.70;99.90
14687;DHT22;7431;49.440;11.084;2023-06-19T22:42:39;21.60;99.90
14687;DHT22;7431;49.440;11.084;2023-06-19T22:45:06;21.70;99.90
14687;DHT22;7431;49.440;11.084;2023-06-19T22:47:32;21.50;99.90
14687;DHT22;7431;49.440;11.084;2023-06-19T22:49:57;21.60;99.90
14687;DHT22;7431;49.440;11.084;2023-06-19T22:52:23;21.70;99.90
14687;DHT22;7431;49.440;11.084;2023-06-19T22:54:49;21.70;99.90
14687;DHT22;7431;49.440;11.084;2023-06-19T22:57:14;21.50;99.90
14687;DHT22;7431;49.440;11.084;2023-06-19T22:59:40;21.50;99.90
14687;DHT22;7431;49.440;11.084;2023-06-19T23:02:05;21.60;99.90
14687;DHT22;7431;49.440;11.084;2023-06-19T23:04:31;21.60;99.90
14687;DHT22;7431;49.440;11.084;2023-06-19T23:06:57;21.40;99.90
14687;DHT22;7431;49.440;11.084;2023-06-19T23:09:26;21.20;99.90
14687;DHT22;7431;49.440;11.084;2023-06-19T23:11:55;21.20;99.90
14687;DHT22;7431;49.440;11.084;2023-06-19T23:14:21;21.40;99.90
14687;DHT22;7431;49.440;11.084;2023-06-19T23:16:46;20.80;99.90
